sensor_id;sensor_type;location;lat;lon;timestamp;pressure;altitude;pressure_sealevel;temperature;humidity
34065;BME280;20339;49.754;20.158;2023-02-16T00:02:10;97512.52;;;2.77;66.95
34065;BME280;20339;49.754;20.158;2023-02-16T00:04:40;97511.23;;;2.76;66.91
34065;BME280;20339;49.754;20.158;2023-02-16T00:07:11;97517.68;;;2.75;67.00
34065;BME280;20339;49.754;20.158;2023-02-16T00:09:42;97525.05;;;2.68;67.20
34065;BME280;20339;49.754;20.158;2023-02-16T00:12:18;97506.72;;;2.61;67.35
34065;BME280;20339;49.754;20.158;2023-02-16T00:15:23;97511.17;;;2.66;67.05
34065;BME280;20339;49.754;20.158;2023-02-16T00:17:56;97517.25;;;2.66;67.05
34065;BME280;20339;49.754;20.158;2023-02-16T00:20:27;97519.29;;;2.61;67.16
34065;BME280;20339;49.754;20.158;2023-02-16T00:22:59;97517.77;;;2.61;67.09
34065;BME280;20339;49.754;20.158;2023-02-16T00:25:30;97511.11;;;2.62;67.02
34065;BME280;20339;49.754;20.158;2023-02-16T00:28:03;97518.39;;;2.65;66.84
34065;BME280;20339;49.754;20.158;2023-02-16T00:30:35;97510.61;;;2.63;66.99
34065;BME280;20339;49.754;20.158;2023-02-16T00:33:13;97519.60;;;2.62;66.84
34065;BME280;20339;49.754;20.158;2023-02-16T00:35:45;97517.97;;;2.59;66.91
34065;BME280;20339;49.754;20.158;2023-02-16T00:38:16;97512.41;;;2.59;66.98
34065;BME280;20339;49.754;20.158;2023-02-16T00:40:47;97506.46;;;2.56;67.11
34065;BME280;20339;49.754;20.158;2023-02-16T00:43:25;97506.59;;;2.50;67.24
34065;BME280;20339;49.754;20.158;2023-02-16T00:45:57;97498.86;;;2.48;67.23
34065;BME280;20339;49.754;20.158;2023-02-16T00:48:28;97492.14;;;2.49;67.17
34065;BME280;20339;49.754;20.158;2023-02-16T00:50:59;97499.27;;;2.48;67.09
34065;BME280;20339;49.754;20.158;2023-02-16T00:53:30;97487.41;;;2.51;67.16
34065;BME280;20339;49.754;20.158;2023-02-16T00:56:01;97483.35;;;2.51;67.11
34065;BME280;20339;49.754;20.158;2023-02-16T00:58:32;97477.16;;;2.49;67.03
34065;BME280;20339;49.754;20.158;2023-02-16T01:01:08;97483.57;;;2.46;67.07
34065;BME280;20339;49.754;20.158;2023-02-16T01:03:39;97480.24;;;2.42;67.20
34065;BME280;20339;49.754;20.158;2023-02-16T01:06:11;97477.86;;;2.38;67.35
34065;BME280;20339;49.754;20.158;2023-02-16T01:09:11;97469.91;;;2.33;67.62
34065;BME280;20339;49.754;20.158;2023-02-16T01:12:01;97472.42;;;2.27;67.87
34065;BME280;20339;49.754;20.158;2023-02-16T01:14:33;97462.00;;;2.25;67.84
34065;BME280;20339;49.754;20.158;2023-02-16T01:17:04;97464.55;;;2.26;67.68
34065;BME280;20339;49.754;20.158;2023-02-16T01:19:35;97459.29;;;2.22;67.68
34065;BME280;20339;49.754;20.158;2023-02-16T01:22:06;97453.65;;;2.15;67.84
34065;BME280;20339;49.754;20.158;2023-02-16T01:24:37;97463.98;;;2.12;68.11
34065;BME280;20339;49.754;20.158;2023-02-16T01:27:10;97466.64;;;2.08;68.09
34065;BME280;20339;49.754;20.158;2023-02-16T01:29:42;97464.65;;;2.00;68.21
34065;BME280;20339;49.754;20.158;2023-02-16T01:32:13;97453.79;;;1.99;68.42
34065;BME280;20339;49.754;20.158;2023-02-16T01:34:44;97451.02;;;1.99;68.42
34065;BME280;20339;49.754;20.158;2023-02-16T01:37:18;97449.31;;;1.98;68.64
34065;BME280;20339;49.754;20.158;2023-02-16T01:39:49;97440.95;;;1.90;68.87
34065;BME280;20339;49.754;20.158;2023-02-16T01:42:30;97431.16;;;1.85;69.09
34065;BME280;20339;49.754;20.158;2023-02-16T01:45:10;97431.00;;;1.86;68.90
34065;BME280;20339;49.754;20.158;2023-02-16T01:47:48;97428.86;;;1.88;69.20
34065;BME280;20339;49.754;20.158;2023-02-16T01:50:21;97419.28;;;1.88;68.93
34065;BME280;20339;49.754;20.158;2023-02-16T01:52:56;97410.98;;;1.90;69.08
34065;BME280;20339;49.754;20.158;2023-02-16T01:55:30;97412.35;;;1.91;68.79
34065;BME280;20339;49.754;20.158;2023-02-16T01:58:06;97418.02;;;1.92;68.39
34065;BME280;20339;49.754;20.158;2023-02-16T02:03:42;97402.91;;;1.89;68.37
34065;BME280;20339;49.754;20.158;2023-02-16T02:06:33;97402.35;;;1.89;68.15
34065;BME280;20339;49.754;20.158;2023-02-16T02:09:09;97386.02;;;1.89;68.40
34065;BME280;20339;49.754;20.158;2023-02-16T02:11:45;97397.17;;;1.85;68.56
34065;BME280;20339;49.754;20.158;2023-02-16T02:14:23;97390.15;;;1.81;68.55
34065;BME280;20339;49.754;20.158;2023-02-16T02:16:58;97383.93;;;1.84;68.38
34065;BME280;20339;49.754;20.158;2023-02-16T02:19:36;97386.47;;;1.85;68.15
34065;BME280;20339;49.754;20.158;2023-02-16T02:22:25;97378.55;;;1.85;67.98
34065;BME280;20339;49.754;20.158;2023-02-16T02:25:30;97379.30;;;1.90;67.68
34065;BME280;20339;49.754;20.158;2023-02-16T02:28:11;97377.72;;;1.91;67.41
34065;BME280;20339;49.754;20.158;2023-02-16T02:30:51;97378.27;;;1.93;67.28
34065;BME280;20339;49.754;20.158;2023-02-16T02:33:40;97373.98;;;1.91;67.08
34065;BME280;20339;49.754;20.158;2023-02-16T02:36:21;97362.89;;;1.88;67.26
34065;BME280;20339;49.754;20.158;2023-02-16T02:39:03;97360.05;;;1.85;67.21
34065;BME280;20339;49.754;20.158;2023-02-16T02:41:41;97366.23;;;1.80;67.25
34065;BME280;20339;49.754;20.158;2023-02-16T02:44:39;97362.02;;;1.74;67.43
34065;BME280;20339;49.754;20.158;2023-02-16T02:47:12;97369.79;;;1.74;67.54
34065;BME280;20339;49.754;20.158;2023-02-16T02:49:49;97365.13;;;1.74;67.33
34065;BME280;20339;49.754;20.158;2023-02-16T02:52:21;97362.25;;;1.77;67.11
34065;BME280;20339;49.754;20.158;2023-02-16T02:54:52;97362.24;;;1.88;66.56
34065;BME280;20339;49.754;20.158;2023-02-16T02:57:48;97357.63;;;1.94;66.27
34065;BME280;20339;49.754;20.158;2023-02-16T03:00:39;97355.41;;;1.96;66.33
34065;BME280;20339;49.754;20.158;2023-02-16T03:03:16;97367.85;;;1.93;66.12
34065;BME280;20339;49.754;20.158;2023-02-16T03:05:56;97359.01;;;1.94;66.19
34065;BME280;20339;49.754;20.158;2023-02-16T03:08:32;97374.17;;;1.95;66.06
34065;BME280;20339;49.754;20.158;2023-02-16T03:11:08;97382.21;;;2.00;65.85
34065;BME280;20339;49.754;20.158;2023-02-16T03:14:01;97372.29;;;1.99;65.92
34065;BME280;20339;49.754;20.158;2023-02-16T03:16:35;97377.56;;;1.98;65.71
34065;BME280;20339;49.754;20.158;2023-02-16T03:19:11;97371.43;;;1.99;65.75
34065;BME280;20339;49.754;20.158;2023-02-16T03:22:00;97375.13;;;1.94;65.58
34065;BME280;20339;49.754;20.158;2023-02-16T03:24:50;97379.03;;;1.97;65.37
34065;BME280;20339;49.754;20.158;2023-02-16T03:27:42;97373.89;;;1.99;65.08
34065;BME280;20339;49.754;20.158;2023-02-16T03:30:31;97369.58;;;2.01;64.85
34065;BME280;20339;49.754;20.158;2023-02-16T03:33:02;97359.37;;;2.00;64.89
34065;BME280;20339;49.754;20.158;2023-02-16T03:35:33;97379.89;;;1.99;64.69
34065;BME280;20339;49.754;20.158;2023-02-16T03:38:05;97380.67;;;1.96;64.73
34065;BME280;20339;49.754;20.158;2023-02-16T03:40:37;97379.59;;;1.96;64.59
34065;BME280;20339;49.754;20.158;2023-02-16T03:43:09;97386.27;;;1.96;64.71
34065;BME280;20339;49.754;20.158;2023-02-16T03:45:42;97386.29;;;1.91;64.79
34065;BME280;20339;49.754;20.158;2023-02-16T03:48:13;97381.84;;;1.84;65.06
34065;BME280;20339;49.754;20.158;2023-02-16T03:50:44;97375.31;;;1.81;65.20
34065;BME280;20339;49.754;20.158;2023-02-16T03:53:15;97380.55;;;1.85;65.03
34065;BME280;20339;49.754;20.158;2023-02-16T03:55:48;97379.07;;;1.85;64.82
34065;BME280;20339;49.754;20.158;2023-02-16T03:58:21;97385.91;;;1.84;64.76
34065;BME280;20339;49.754;20.158;2023-02-16T04:00:52;97391.61;;;1.87;64.64
34065;BME280;20339;49.754;20.158;2023-02-16T04:03:23;97389.77;;;1.87;64.56
34065;BME280;20339;49.754;20.158;2023-02-16T04:05:55;97391.81;;;1.87;64.58
34065;BME280;20339;49.754;20.158;2023-02-16T04:08:26;97381.35;;;1.89;64.62
34065;BME280;20339;49.754;20.158;2023-02-16T04:10:57;97382.36;;;1.85;64.50
34065;BME280;20339;49.754;20.158;2023-02-16T04:13:28;97383.77;;;1.87;64.36
34065;BME280;20339;49.754;20.158;2023-02-16T04:15:59;97383.94;;;1.94;63.85
34065;BME280;20339;49.754;20.158;2023-02-16T04:18:30;97373.25;;;2.00;63.52
34065;BME280;20339;49.754;20.158;2023-02-16T04:21:01;97371.70;;;2.04;63.32
34065;BME280;20339;49.754;20.158;2023-02-16T04:23:32;97368.54;;;1.99;63.32
34065;BME280;20339;49.754;20.158;2023-02-16T04:26:03;97353.29;;;1.98;63.42
34065;BME280;20339;49.754;20.158;2023-02-16T04:28:34;97351.11;;;2.01;62.95
34065;BME280;20339;49.754;20.158;2023-02-16T04:31:06;97356.31;;;2.00;62.99
34065;BME280;20339;49.754;20.158;2023-02-16T04:33:37;97367.29;;;1.93;63.35
34065;BME280;20339;49.754;20.158;2023-02-16T04:36:09;97357.30;;;1.87;63.32
34065;BME280;20339;49.754;20.158;2023-02-16T04:38:40;97359.56;;;1.85;63.32
34065;BME280;20339;49.754;20.158;2023-02-16T04:41:11;97354.05;;;1.84;63.11
34065;BME280;20339;49.754;20.158;2023-02-16T04:43:42;97365.00;;;1.92;62.43
34065;BME280;20339;49.754;20.158;2023-02-16T04:46:13;97364.39;;;2.02;62.32
34065;BME280;20339;49.754;20.158;2023-02-16T04:48:44;97354.30;;;1.98;62.29
34065;BME280;20339;49.754;20.158;2023-02-16T04:51:15;97347.34;;;1.99;62.00
34065;BME280;20339;49.754;20.158;2023-02-16T04:53:46;97368.73;;;2.02;61.84
34065;BME280;20339;49.754;20.158;2023-02-16T04:56:18;97366.88;;;2.01;61.84
34065;BME280;20339;49.754;20.158;2023-02-16T04:58:49;97370.27;;;1.97;61.95
34065;BME280;20339;49.754;20.158;2023-02-16T05:01:22;97365.12;;;1.92;62.07
34065;BME280;20339;49.754;20.158;2023-02-16T05:03:53;97364.55;;;1.88;62.42
34065;BME280;20339;49.754;20.158;2023-02-16T05:06:24;97359.97;;;1.76;62.83
34065;BME280;20339;49.754;20.158;2023-02-16T05:08:55;97351.48;;;1.69;62.97
34065;BME280;20339;49.754;20.158;2023-02-16T05:11:26;97358.08;;;1.67;63.05
34065;BME280;20339;49.754;20.158;2023-02-16T05:14:19;97362.03;;;1.62;63.35
34065;BME280;20339;49.754;20.158;2023-02-16T05:17:08;97360.77;;;1.60;63.29
34065;BME280;20339;49.754;20.158;2023-02-16T05:19:40;97355.66;;;1.58;63.35
34065;BME280;20339;49.754;20.158;2023-02-16T05:22:12;97358.90;;;1.55;63.47
34065;BME280;20339;49.754;20.158;2023-02-16T05:24:43;97358.46;;;1.55;63.33
34065;BME280;20339;49.754;20.158;2023-02-16T05:27:18;97349.98;;;1.52;63.58
34065;BME280;20339;49.754;20.158;2023-02-16T05:29:49;97353.60;;;1.49;63.57
34065;BME280;20339;49.754;20.158;2023-02-16T05:32:21;97363.05;;;1.45;63.87
34065;BME280;20339;49.754;20.158;2023-02-16T05:34:52;97368.91;;;1.36;63.98
34065;BME280;20339;49.754;20.158;2023-02-16T05:37:23;97368.31;;;1.32;63.99
34065;BME280;20339;49.754;20.158;2023-02-16T05:39:54;97369.97;;;1.34;64.03
34065;BME280;20339;49.754;20.158;2023-02-16T05:42:25;97368.89;;;1.31;64.30
34065;BME280;20339;49.754;20.158;2023-02-16T05:44:56;97366.45;;;1.25;64.35
34065;BME280;20339;49.754;20.158;2023-02-16T05:47:27;97363.45;;;1.18;64.52
34065;BME280;20339;49.754;20.158;2023-02-16T05:49:58;97369.96;;;1.17;64.38
34065;BME280;20339;49.754;20.158;2023-02-16T05:52:29;97371.89;;;1.20;64.58
34065;BME280;20339;49.754;20.158;2023-02-16T05:55:00;97369.80;;;1.26;64.59
34065;BME280;20339;49.754;20.158;2023-02-16T05:57:32;97370.01;;;1.33;64.40
34065;BME280;20339;49.754;20.158;2023-02-16T06:00:06;97372.93;;;1.37;64.42
34065;BME280;20339;49.754;20.158;2023-02-16T06:02:38;97373.90;;;1.38;64.39
34065;BME280;20339;49.754;20.158;2023-02-16T06:05:10;97378.75;;;1.39;64.29
34065;BME280;20339;49.754;20.158;2023-02-16T06:07:41;97375.88;;;1.45;64.31
34065;BME280;20339;49.754;20.158;2023-02-16T06:10:12;97376.88;;;1.43;64.54
34065;BME280;20339;49.754;20.158;2023-02-16T06:12:45;97376.31;;;1.58;64.51
34065;BME280;20339;49.754;20.158;2023-02-16T06:15:16;97380.46;;;1.91;63.95
34065;BME280;20339;49.754;20.158;2023-02-16T06:17:47;97383.05;;;2.41;63.50
34065;BME280;20339;49.754;20.158;2023-02-16T06:20:19;97388.80;;;2.95;62.63
34065;BME280;20339;49.754;20.158;2023-02-16T06:22:50;97395.33;;;3.44;61.71
34065;BME280;20339;49.754;20.158;2023-02-16T06:25:21;97392.92;;;3.87;60.44
34065;BME280;20339;49.754;20.158;2023-02-16T06:27:55;97391.38;;;4.17;59.34
34065;BME280;20339;49.754;20.158;2023-02-16T06:30:26;97385.84;;;4.23;57.94
34065;BME280;20339;49.754;20.158;2023-02-16T06:32:58;97390.38;;;4.35;57.82
34065;BME280;20339;49.754;20.158;2023-02-16T06:35:29;97391.25;;;4.53;58.19
34065;BME280;20339;49.754;20.158;2023-02-16T06:38:01;97388.42;;;4.76;57.48
34065;BME280;20339;49.754;20.158;2023-02-16T06:40:32;97381.09;;;4.87;57.07
34065;BME280;20339;49.754;20.158;2023-02-16T06:43:03;97381.75;;;5.16;56.39
34065;BME280;20339;49.754;20.158;2023-02-16T06:45:34;97382.34;;;5.46;55.84
34065;BME280;20339;49.754;20.158;2023-02-16T06:48:06;97377.86;;;5.88;55.46
34065;BME280;20339;49.754;20.158;2023-02-16T06:50:37;97381.11;;;6.20;54.53
34065;BME280;20339;49.754;20.158;2023-02-16T06:53:08;97384.92;;;6.39;53.95
34065;BME280;20339;49.754;20.158;2023-02-16T06:55:39;97383.45;;;6.49;53.66
34065;BME280;20339;49.754;20.158;2023-02-16T06:58:11;97380.18;;;6.76;53.76
34065;BME280;20339;49.754;20.158;2023-02-16T07:00:42;97376.86;;;7.07;52.83
34065;BME280;20339;49.754;20.158;2023-02-16T07:03:13;97376.52;;;7.21;52.15
34065;BME280;20339;49.754;20.158;2023-02-16T07:05:44;97378.10;;;7.36;51.77
34065;BME280;20339;49.754;20.158;2023-02-16T07:08:15;97384.84;;;7.55;51.18
34065;BME280;20339;49.754;20.158;2023-02-16T07:10:46;97384.52;;;7.48;50.78
34065;BME280;20339;49.754;20.158;2023-02-16T07:13:17;97389.52;;;7.41;50.53
34065;BME280;20339;49.754;20.158;2023-02-16T07:15:48;97386.29;;;7.62;50.77
34065;BME280;20339;49.754;20.158;2023-02-16T07:18:19;97388.05;;;7.77;49.82
34065;BME280;20339;49.754;20.158;2023-02-16T07:20:50;97383.79;;;7.82;49.69
34065;BME280;20339;49.754;20.158;2023-02-16T07:23:22;97388.61;;;7.80;49.40
34065;BME280;20339;49.754;20.158;2023-02-16T07:25:52;97384.27;;;7.82;48.91
34065;BME280;20339;49.754;20.158;2023-02-16T07:28:24;97379.45;;;7.68;49.03
34065;BME280;20339;49.754;20.158;2023-02-16T07:30:55;97379.24;;;7.68;48.74
34065;BME280;20339;49.754;20.158;2023-02-16T07:33:26;97381.82;;;7.74;48.31
34065;BME280;20339;49.754;20.158;2023-02-16T07:35:57;97381.36;;;7.72;48.25
34065;BME280;20339;49.754;20.158;2023-02-16T07:38:28;97375.81;;;7.82;48.91
34065;BME280;20339;49.754;20.158;2023-02-16T07:41:01;97381.02;;;7.90;48.55
34065;BME280;20339;49.754;20.158;2023-02-16T07:43:32;97365.76;;;7.95;47.27
34065;BME280;20339;49.754;20.158;2023-02-16T07:46:04;97356.55;;;7.17;46.71
34065;BME280;20339;49.754;20.158;2023-02-16T07:48:35;97358.86;;;6.52;48.19
34065;BME280;20339;49.754;20.158;2023-02-16T07:51:07;97368.54;;;6.21;48.80
34065;BME280;20339;49.754;20.158;2023-02-16T07:53:38;97364.27;;;6.23;48.85
34065;BME280;20339;49.754;20.158;2023-02-16T07:56:15;97359.27;;;6.39;48.57
34065;BME280;20339;49.754;20.158;2023-02-16T07:58:48;97374.65;;;6.51;48.79
34065;BME280;20339;49.754;20.158;2023-02-16T08:01:21;97377.84;;;7.22;49.47
34065;BME280;20339;49.754;20.158;2023-02-16T08:03:52;97380.07;;;8.21;48.52
34065;BME280;20339;49.754;20.158;2023-02-16T08:06:24;97373.33;;;8.90;47.50
34065;BME280;20339;49.754;20.158;2023-02-16T08:08:55;97377.61;;;9.44;46.18
34065;BME280;20339;49.754;20.158;2023-02-16T08:11:26;97375.69;;;9.76;45.51
34065;BME280;20339;49.754;20.158;2023-02-16T08:13:59;97367.68;;;10.14;45.47
34065;BME280;20339;49.754;20.158;2023-02-16T08:16:30;97365.80;;;10.55;44.75
34065;BME280;20339;49.754;20.158;2023-02-16T08:19:02;97363.40;;;10.69;44.45
34065;BME280;20339;49.754;20.158;2023-02-16T08:21:34;97366.23;;;10.91;43.92
34065;BME280;20339;49.754;20.158;2023-02-16T08:24:10;97367.55;;;11.11;43.55
34065;BME280;20339;49.754;20.158;2023-02-16T08:26:42;97371.12;;;11.11;42.74
34065;BME280;20339;49.754;20.158;2023-02-16T08:29:18;97373.27;;;11.07;42.48
34065;BME280;20339;49.754;20.158;2023-02-16T08:31:50;97369.52;;;11.16;42.93
34065;BME280;20339;49.754;20.158;2023-02-16T08:34:24;97371.56;;;11.27;42.81
34065;BME280;20339;49.754;20.158;2023-02-16T08:36:57;97373.11;;;11.42;42.65
34065;BME280;20339;49.754;20.158;2023-02-16T08:39:30;97373.60;;;11.59;42.38
34065;BME280;20339;49.754;20.158;2023-02-16T08:42:05;97379.70;;;11.48;41.69
34065;BME280;20339;49.754;20.158;2023-02-16T08:44:37;97380.52;;;11.43;41.96
34065;BME280;20339;49.754;20.158;2023-02-16T08:47:09;97372.48;;;11.39;41.89
34065;BME280;20339;49.754;20.158;2023-02-16T08:49:42;97370.23;;;11.24;41.75
34065;BME280;20339;49.754;20.158;2023-02-16T08:52:14;97368.89;;;11.12;41.89
34065;BME280;20339;49.754;20.158;2023-02-16T08:54:45;97371.25;;;10.69;41.21
34065;BME280;20339;49.754;20.158;2023-02-16T08:57:17;97372.40;;;10.07;41.40
34065;BME280;20339;49.754;20.158;2023-02-16T08:59:48;97377.05;;;9.60;42.57
34065;BME280;20339;49.754;20.158;2023-02-16T09:02:39;97372.52;;;9.21;43.07
34065;BME280;20339;49.754;20.158;2023-02-16T09:05:10;97373.04;;;8.79;43.67
34065;BME280;20339;49.754;20.158;2023-02-16T09:07:42;97369.56;;;8.48;44.06
34065;BME280;20339;49.754;20.158;2023-02-16T09:10:13;97367.02;;;8.28;44.93
34065;BME280;20339;49.754;20.158;2023-02-16T09:12:45;97370.82;;;8.05;45.29
34065;BME280;20339;49.754;20.158;2023-02-16T09:15:19;97368.77;;;7.86;45.68
34065;BME280;20339;49.754;20.158;2023-02-16T09:17:51;97377.73;;;7.55;46.09
34065;BME280;20339;49.754;20.158;2023-02-16T09:20:22;97375.66;;;7.36;46.61
34065;BME280;20339;49.754;20.158;2023-02-16T09:22:56;97369.67;;;7.15;47.19
34065;BME280;20339;49.754;20.158;2023-02-16T09:25:27;97369.94;;;7.04;47.62
34065;BME280;20339;49.754;20.158;2023-02-16T09:27:58;97363.20;;;7.02;47.72
34065;BME280;20339;49.754;20.158;2023-02-16T09:30:30;97361.52;;;6.95;48.07
34065;BME280;20339;49.754;20.158;2023-02-16T09:33:01;97357.98;;;6.95;48.52
34065;BME280;20339;49.754;20.158;2023-02-16T09:35:35;97361.11;;;6.99;48.36
34065;BME280;20339;49.754;20.158;2023-02-16T09:38:08;97357.33;;;6.98;48.47
34065;BME280;20339;49.754;20.158;2023-02-16T09:40:39;97359.06;;;6.97;48.54
34065;BME280;20339;49.754;20.158;2023-02-16T09:43:16;97363.41;;;7.01;48.63
34065;BME280;20339;49.754;20.158;2023-02-16T09:45:50;97360.59;;;7.11;48.48
34065;BME280;20339;49.754;20.158;2023-02-16T09:48:30;97357.38;;;7.12;48.64
34065;BME280;20339;49.754;20.158;2023-02-16T09:51:04;97362.86;;;7.05;48.31
34065;BME280;20339;49.754;20.158;2023-02-16T09:53:39;97357.64;;;7.15;48.81
34065;BME280;20339;49.754;20.158;2023-02-16T09:56:18;97356.05;;;7.24;48.52
34065;BME280;20339;49.754;20.158;2023-02-16T09:58:54;97356.07;;;7.28;48.47
34065;BME280;20339;49.754;20.158;2023-02-16T10:01:32;97351.78;;;7.37;48.48
34065;BME280;20339;49.754;20.158;2023-02-16T10:04:25;97350.36;;;7.37;48.45
34065;BME280;20339;49.754;20.158;2023-02-16T10:07:10;97346.09;;;7.34;48.64
34065;BME280;20339;49.754;20.158;2023-02-16T10:09:48;97347.95;;;7.48;48.81
34065;BME280;20339;49.754;20.158;2023-02-16T10:12:26;97344.42;;;7.66;49.23
34065;BME280;20339;49.754;20.158;2023-02-16T10:15:04;97341.52;;;7.86;49.26
34065;BME280;20339;49.754;20.158;2023-02-16T10:17:43;97338.80;;;8.08;49.43
34065;BME280;20339;49.754;20.158;2023-02-16T10:20:18;97340.03;;;8.26;48.74
34065;BME280;20339;49.754;20.158;2023-02-16T10:22:56;97340.13;;;8.29;48.63
34065;BME280;20339;49.754;20.158;2023-02-16T10:25:36;97338.89;;;8.32;48.13
34065;BME280;20339;49.754;20.158;2023-02-16T10:28:16;97332.90;;;8.30;48.42
34065;BME280;20339;49.754;20.158;2023-02-16T10:30:52;97336.23;;;8.36;48.16
34065;BME280;20339;49.754;20.158;2023-02-16T10:33:38;97332.05;;;8.40;48.18
34065;BME280;20339;49.754;20.158;2023-02-16T10:36:26;97331.20;;;8.40;47.71
34065;BME280;20339;49.754;20.158;2023-02-16T10:39:04;97328.09;;;8.44;48.07
34065;BME280;20339;49.754;20.158;2023-02-16T10:41:39;97330.34;;;8.56;48.40
34065;BME280;20339;49.754;20.158;2023-02-16T10:44:18;97333.00;;;8.61;47.47
34065;BME280;20339;49.754;20.158;2023-02-16T10:46:56;97327.44;;;8.60;47.59
34065;BME280;20339;49.754;20.158;2023-02-16T10:49:30;97325.80;;;8.60;47.59
34065;BME280;20339;49.754;20.158;2023-02-16T10:52:04;97329.13;;;8.66;47.49
34065;BME280;20339;49.754;20.158;2023-02-16T10:54:37;97321.83;;;8.71;47.40
34065;BME280;20339;49.754;20.158;2023-02-16T10:57:26;97316.40;;;8.62;47.33
34065;BME280;20339;49.754;20.158;2023-02-16T11:00:00;97312.67;;;8.50;47.68
34065;BME280;20339;49.754;20.158;2023-02-16T11:02:37;97315.83;;;8.54;47.89
34065;BME280;20339;49.754;20.158;2023-02-16T11:05:31;97317.99;;;8.49;47.69
34065;BME280;20339;49.754;20.158;2023-02-16T11:08:03;97314.86;;;8.51;47.94
34065;BME280;20339;49.754;20.158;2023-02-16T11:10:42;97309.30;;;8.57;48.34
34065;BME280;20339;49.754;20.158;2023-02-16T11:13:25;97311.99;;;8.60;48.52
34065;BME280;20339;49.754;20.158;2023-02-16T11:15:59;97308.81;;;8.64;48.24
34065;BME280;20339;49.754;20.158;2023-02-16T11:18:33;97308.13;;;8.64;48.30
34065;BME280;20339;49.754;20.158;2023-02-16T11:21:08;97308.34;;;8.65;48.17
34065;BME280;20339;49.754;20.158;2023-02-16T11:23:41;97303.67;;;8.63;48.40
34065;BME280;20339;49.754;20.158;2023-02-16T11:26:24;97304.13;;;8.67;48.38
34065;BME280;20339;49.754;20.158;2023-02-16T11:29:15;97300.51;;;8.64;48.07
34065;BME280;20339;49.754;20.158;2023-02-16T11:31:47;97293.88;;;8.67;48.61
34065;BME280;20339;49.754;20.158;2023-02-16T11:34:27;97291.94;;;8.73;48.68
34065;BME280;20339;49.754;20.158;2023-02-16T11:37:12;97291.05;;;8.80;48.64
34065;BME280;20339;49.754;20.158;2023-02-16T11:39:50;97291.98;;;8.88;48.85
34065;BME280;20339;49.754;20.158;2023-02-16T11:42:30;97293.06;;;8.91;48.37
34065;BME280;20339;49.754;20.158;2023-02-16T11:45:05;97292.19;;;8.94;48.76
34065;BME280;20339;49.754;20.158;2023-02-16T11:47:38;97291.60;;;9.05;48.68
34065;BME280;20339;49.754;20.158;2023-02-16T11:50:21;97284.33;;;9.03;47.79
34065;BME280;20339;49.754;20.158;2023-02-16T11:52:56;97278.16;;;8.92;47.79
34065;BME280;20339;49.754;20.158;2023-02-16T11:55:30;97280.08;;;8.94;48.57
34065;BME280;20339;49.754;20.158;2023-02-16T11:58:19;97275.63;;;9.04;48.75
34065;BME280;20339;49.754;20.158;2023-02-16T12:01:11;97271.97;;;9.12;48.72
34065;BME280;20339;49.754;20.158;2023-02-16T12:04:03;97264.48;;;8.95;47.68
34065;BME280;20339;49.754;20.158;2023-02-16T12:06:50;97262.95;;;8.76;48.28
34065;BME280;20339;49.754;20.158;2023-02-16T12:09:31;97256.43;;;8.76;48.72
34065;BME280;20339;49.754;20.158;2023-02-16T12:12:13;97255.41;;;8.86;49.12
34065;BME280;20339;49.754;20.158;2023-02-16T12:14:48;97253.11;;;8.95;48.84
34065;BME280;20339;49.754;20.158;2023-02-16T12:17:32;97253.80;;;9.02;48.82
34065;BME280;20339;49.754;20.158;2023-02-16T12:20:28;97250.55;;;9.00;48.89
34065;BME280;20339;49.754;20.158;2023-02-16T12:23:13;97245.52;;;9.00;49.23
34065;BME280;20339;49.754;20.158;2023-02-16T12:25:53;97248.39;;;9.06;49.16
34065;BME280;20339;49.754;20.158;2023-02-16T12:28:37;97242.77;;;9.05;48.68
34065;BME280;20339;49.754;20.158;2023-02-16T12:31:18;97244.56;;;8.99;48.73
34065;BME280;20339;49.754;20.158;2023-02-16T12:33:55;97237.81;;;8.93;48.58
34065;BME280;20339;49.754;20.158;2023-02-16T12:36:54;97236.78;;;8.85;48.62
34065;BME280;20339;49.754;20.158;2023-02-16T12:39:31;97227.57;;;8.87;49.33
34065;BME280;20339;49.754;20.158;2023-02-16T12:42:24;97226.96;;;8.91;49.16
34065;BME280;20339;49.754;20.158;2023-02-16T12:45:08;97223.86;;;8.95;49.30
34065;BME280;20339;49.754;20.158;2023-02-16T12:47:41;97223.66;;;8.99;49.32
34065;BME280;20339;49.754;20.158;2023-02-16T12:50:20;97217.53;;;8.98;49.07
34065;BME280;20339;49.754;20.158;2023-02-16T12:52:56;97210.30;;;9.05;49.44
34065;BME280;20339;49.754;20.158;2023-02-16T12:55:34;97208.96;;;9.19;49.42
34065;BME280;20339;49.754;20.158;2023-02-16T12:58:15;97205.39;;;9.21;49.10
34065;BME280;20339;49.754;20.158;2023-02-16T13:00:49;97202.31;;;9.28;49.15
34065;BME280;20339;49.754;20.158;2023-02-16T13:03:31;97199.80;;;9.33;49.03
34065;BME280;20339;49.754;20.158;2023-02-16T13:06:19;97199.27;;;9.43;48.88
34065;BME280;20339;49.754;20.158;2023-02-16T13:08:59;97195.83;;;9.42;48.30
34065;BME280;20339;49.754;20.158;2023-02-16T13:11:37;97192.10;;;9.39;48.71
34065;BME280;20339;49.754;20.158;2023-02-16T13:14:15;97190.79;;;9.39;48.43
34065;BME280;20339;49.754;20.158;2023-02-16T13:16:52;97179.33;;;9.33;47.55
34065;BME280;20339;49.754;20.158;2023-02-16T13:19:25;97183.30;;;9.27;48.12
34065;BME280;20339;49.754;20.158;2023-02-16T13:22:25;97180.92;;;9.33;48.52
34065;BME280;20339;49.754;20.158;2023-02-16T13:25:11;97179.87;;;9.37;48.54
34065;BME280;20339;49.754;20.158;2023-02-16T13:27:57;97170.04;;;9.46;48.33
34065;BME280;20339;49.754;20.158;2023-02-16T13:30:53;97169.35;;;9.48;48.53
34065;BME280;20339;49.754;20.158;2023-02-16T13:33:41;97167.85;;;9.56;49.01
34065;BME280;20339;49.754;20.158;2023-02-16T13:36:26;97170.83;;;9.58;48.49
34065;BME280;20339;49.754;20.158;2023-02-16T13:39:28;97169.08;;;9.46;49.07
34065;BME280;20339;49.754;20.158;2023-02-16T13:44:52;97169.63;;;9.54;48.92
34065;BME280;20339;49.754;20.158;2023-02-16T13:47:28;97164.83;;;9.64;48.73
34065;BME280;20339;49.754;20.158;2023-02-16T13:50:01;97164.50;;;9.64;47.42
34065;BME280;20339;49.754;20.158;2023-02-16T13:52:35;97163.23;;;9.62;48.48